<?xml version='1.0' encoding='UTF-8'?><gpx version="1.1" creator="JPX - https://github.com/jenetics/jpx" xmlns="http://www.topografix.com/GPX/1/1"><trk><trkseg><trkpt lat="46.05917194138063" lon="12.558868632421236"><ele>133.0</ele><time>2026-04-24T15:35:52Z</time></trkpt><trkpt lat="46.059228755656704" lon="12.558950923579983"><ele>133.0</ele><time>2026-04-24T15:35:55Z</time></trkpt><trkpt lat="46.05926736432781" lon="12.559026470644975"><ele>133.0</ele><time>2026-04-24T15:36:01Z</time></trkpt><trkpt lat="46.05927613871138" lon="12.559139072507788"><ele>133.0</ele><time>2026-04-24T15:36:08Z</time></trkpt><trkpt lat="46.059348173646434" lon="12.559185173726602"><ele>133.0</ele><time>2026-04-24T15:36:17Z</time></trkpt><trkpt lat="46.059403706928194" lon="12.559118031727197"><ele>133.0</ele><time>2026-04-24T15:36:23Z</time></trkpt><trkpt lat="46.05946833265963" lon="12.559050483128939"><ele>133.0</ele><time>2026-04-24T15:36:31Z</time></trkpt><trkpt lat="46.0595309607715" lon="12.5590017512872"><ele>133.0</ele><time>2026-04-24T15:36:40Z</time></trkpt><trkpt lat="46.05958547729283" lon="12.558951491080723"><ele>133.0</ele><time>2026-04-24T15:36:46Z</time></trkpt><trkpt lat="46.059644150859725" lon="12.558915617038288"><ele>133.0</ele><time>2026-04-24T15:36:52Z</time></trkpt><trkpt lat="46.05967952580191" lon="12.558839207067686"><ele>133.0</ele><time>2026-04-24T15:36:57Z</time></trkpt><trkpt lat="46.05973347426237" lon="12.558782199508963"><ele>133.0</ele><time>2026-04-24T15:37:01Z</time></trkpt><trkpt lat="46.0597927786665" lon="12.558738138592776"><ele>133.0</ele><time>2026-04-24T15:37:09Z</time></trkpt><trkpt lat="46.05981752076656" lon="12.558644416244691"><ele>133.14285714285714</ele><time>2026-04-24T15:37:15Z</time></trkpt><trkpt lat="46.059864765719375" lon="12.558574933196573"><ele>133.28571428571428</ele><time>2026-04-24T15:37:22Z</time></trkpt><trkpt lat="46.05992817949146" lon="12.558542414952854"><ele>133.42857142857144</ele><time>2026-04-24T15:37:27Z</time></trkpt><trkpt lat="46.059987586701226" lon="12.558493564073368"><ele>133.57142857142856</ele><time>2026-04-24T15:37:33Z</time></trkpt><trkpt lat="46.06002645354551" lon="12.558401614429448"><ele>133.71428571428572</ele><time>2026-04-24T15:37:38.999Z</time></trkpt><trkpt lat="46.06008764124313" lon="12.558361868693483"><ele>133.85714285714286</ele><time>2026-04-24T15:37:43.999Z</time></trkpt><trkpt lat="46.06012423467879" lon="12.558271451571219"><ele>134.0</ele><time>2026-04-24T15:37:51Z</time></trkpt><trkpt lat="46.060198442811576" lon="12.558197933773288"><ele>134.0</ele><time>2026-04-24T15:38:13Z</time></trkpt><trkpt lat="46.060260296287865" lon="12.55816159557462"><ele>134.0</ele><time>2026-04-24T15:38:19Z</time></trkpt><trkpt lat="46.06031399253581" lon="12.558100267279576"><ele>134.0</ele><time>2026-04-24T15:38:25Z</time></trkpt><trkpt lat="46.06036691806932" lon="12.55804187537626"><ele>134.0</ele><time>2026-04-24T15:38:30Z</time></trkpt><trkpt lat="46.060417692859886" lon="12.557962439764687"><ele>134.0</ele><time>2026-04-24T15:38:38Z</time></trkpt><trkpt lat="46.06048385237338" lon="12.557962206609162"><ele>134.0</ele><time>2026-04-24T15:38:45Z</time></trkpt><trkpt lat="46.06055293981425" lon="12.557926872404254"><ele>134.0</ele><time>2026-04-24T15:38:52Z</time></trkpt><trkpt lat="46.06059481623102" lon="12.557857836954579"><ele>134.57142857142858</ele><time>2026-04-24T15:39:01Z</time></trkpt><trkpt lat="46.06066118897327" lon="12.557844171397807"><ele>135.14285714285714</ele><time>2026-04-24T15:39:10Z</time></trkpt><trkpt lat="46.060724524739555" lon="12.5578025335319"><ele>135.71428571428572</ele><time>2026-04-24T15:39:14Z</time></trkpt><trkpt lat="46.06078661271867" lon="12.55773202571452"><ele>136.28571428571428</ele><time>2026-04-24T15:39:19Z</time></trkpt><trkpt lat="46.060847063253355" lon="12.557684089396101"><ele>136.85714285714286</ele><time>2026-04-24T15:39:26Z</time></trkpt><trkpt lat="46.06089433293176" lon="12.55761884912553"><ele>137.42857142857144</ele><time>2026-04-24T15:39:32Z</time></trkpt><trkpt lat="46.060946599754324" lon="12.557555924189488"><ele>138.0</ele><time>2026-04-24T15:39:37Z</time></trkpt><trkpt lat="46.06099589723961" lon="12.557471471247883"><ele>138.28571428571428</ele><time>2026-04-24T15:39:43.999Z</time></trkpt><trkpt lat="46.06104816984193" lon="12.55740617349468"><ele>138.57142857142858</ele><time>2026-04-24T15:39:50.999Z</time></trkpt><trkpt lat="46.06109228753237" lon="12.557325758054821"><ele>138.85714285714286</ele><time>2026-04-24T15:39:58Z</time></trkpt><trkpt lat="46.0611525396203" lon="12.55729733441235"><ele>139.14285714285714</ele><time>2026-04-24T15:40:06Z</time></trkpt><trkpt lat="46.06120067862667" lon="12.557193934908351"><ele>139.42857142857144</ele><time>2026-04-24T15:40:16Z</time></trkpt><trkpt lat="46.06122483860366" lon="12.557094242603716"><ele>139.71428571428572</ele><time>2026-04-24T15:40:20Z</time></trkpt><trkpt lat="46.061275009712375" lon="12.557020682344529"><ele>140.0</ele><time>2026-04-24T15:40:25Z</time></trkpt><trkpt lat="46.06130811922157" lon="12.556940477497418"><ele>140.28571428571428</ele><time>2026-04-24T15:40:32Z</time></trkpt><trkpt lat="46.06135458152708" lon="12.556857344922205"><ele>140.57142857142856</ele><time>2026-04-24T15:40:44Z</time></trkpt><trkpt lat="46.06137219415074" lon="12.556765532656172"><ele>140.85714285714286</ele><time>2026-04-24T15:40:52Z</time></trkpt><trkpt lat="46.061413256756744" lon="12.556695971702169"><ele>141.14285714285714</ele><time>2026-04-24T15:40:59Z</time></trkpt><trkpt lat="46.06146459777423" lon="12.556640691490022"><ele>141.42857142857142</ele><time>2026-04-24T15:41:06Z</time></trkpt><trkpt lat="46.06149289260421" lon="12.556557114760668"><ele>141.71428571428572</ele><time>2026-04-24T15:41:11Z</time></trkpt><trkpt lat="46.06150544210778" lon="12.556455390763762"><ele>142.0</ele><time>2026-04-24T15:41:19Z</time></trkpt><trkpt lat="46.061510448714756" lon="12.55636078685636"><ele>142.0</ele><time>2026-04-24T15:41:24Z</time></trkpt><trkpt lat="46.06155447312713" lon="12.556294550955869"><ele>142.0</ele><time>2026-04-24T15:41:32Z</time></trkpt><trkpt lat="46.06162295206169" lon="12.556339253660571"><ele>142.0</ele><time>2026-04-24T15:41:44Z</time></trkpt><trkpt lat="46.06166867971429" lon="12.556274177973652"><ele>142.0</ele><time>2026-04-24T15:41:49Z</time></trkpt><trkpt lat="46.061684004756096" lon="12.556179318012031"><ele>142.0</ele><time>2026-04-24T15:41:54.999Z</time></trkpt><trkpt lat="46.06169937044146" lon="12.556062597090497"><ele>142.0</ele><time>2026-04-24T15:42:01Z</time></trkpt><trkpt lat="46.061713594626696" lon="12.555965332712594"><ele>142.0</ele><time>2026-04-24T15:42:07Z</time></trkpt><trkpt lat="46.061716260740184" lon="12.555856315722412"><ele>142.28571428571428</ele><time>2026-04-24T15:42:12Z</time></trkpt><trkpt lat="46.06173910402807" lon="12.555765702561208"><ele>142.57142857142856</ele><time>2026-04-24T15:42:17Z</time></trkpt><trkpt lat="46.061740380494875" lon="12.555674526544443"><ele>142.85714285714286</ele><time>2026-04-24T15:42:22Z</time></trkpt><trkpt lat="46.061726859192376" lon="12.555561205239329"><ele>143.14285714285714</ele><time>2026-04-24T15:42:29Z</time></trkpt><trkpt lat="46.061765986487075" lon="12.555468275199052"><ele>143.42857142857144</ele><time>2026-04-24T15:42:38Z</time></trkpt><trkpt lat="46.06175622283381" lon="12.555371820900925"><ele>143.71428571428572</ele><time>2026-04-24T15:42:45Z</time></trkpt><trkpt lat="46.06173839272082" lon="12.55527335837561"><ele>144.0</ele><time>2026-04-24T15:42:55Z</time></trkpt><trkpt lat="46.06178667684678" lon="12.5552134096687"><ele>144.66666666666666</ele><time>2026-04-24T15:43:10Z</time></trkpt><trkpt lat="46.06187497523153" lon="12.55515045205283"><ele>145.33333333333334</ele><time>2026-04-24T15:43:30Z</time></trkpt><trkpt lat="46.06193722379907" lon="12.555067914360716"><ele>146.0</ele><time>2026-04-24T15:43:37Z</time></trkpt><trkpt lat="46.062043443583235" lon="12.555053819789507"><ele>146.66666666666669</ele><time>2026-04-24T15:44:38Z</time></trkpt><trkpt lat="46.062069391116225" lon="12.554948575066236"><ele>147.33333333333334</ele><time>2026-04-24T15:44:42Z</time></trkpt><trkpt lat="46.062036956884285" lon="12.554863782070466"><ele>148.0</ele><time>2026-04-24T15:44:45Z</time></trkpt><trkpt lat="46.06199054645482" lon="12.554799656700228"><ele>148.0</ele><time>2026-04-24T15:44:48Z</time></trkpt><trkpt lat="46.06197495283785" lon="12.55468078700644"><ele>148.0</ele><time>2026-04-24T15:44:54Z</time></trkpt><trkpt lat="46.06195356523351" lon="12.554587988526238"><ele>148.0</ele><time>2026-04-24T15:44:58Z</time></trkpt><trkpt lat="46.06194819130252" lon="12.554484472840425"><ele>148.0</ele><time>2026-04-24T15:45:01Z</time></trkpt><trkpt lat="46.06195303727925" lon="12.554381561943998"><ele>148.0</ele><time>2026-04-24T15:45:05Z</time></trkpt><trkpt lat="46.06195036575676" lon="12.554265683144038"><ele>148.0</ele><time>2026-04-24T15:45:12Z</time></trkpt><trkpt lat="46.06195511176054" lon="12.554168775934528"><ele>148.0</ele><time>2026-04-24T15:45:18Z</time></trkpt><trkpt lat="46.06195937731111" lon="12.554069503125142"><ele>148.28571428571428</ele><time>2026-04-24T15:45:43Z</time></trkpt><trkpt lat="46.061912038138374" lon="12.554002403117822"><ele>148.57142857142856</ele><time>2026-04-24T15:45:48Z</time></trkpt><trkpt lat="46.06184978966966" lon="12.553964244695495"><ele>148.85714285714283</ele><time>2026-04-24T15:46:09.999Z</time></trkpt><trkpt lat="46.06183507858315" lon="12.553856307117181"><ele>149.14285714285714</ele><time>2026-04-24T15:46:28Z</time></trkpt><trkpt lat="46.0618022591844" lon="12.553766044648777"><ele>149.42857142857142</ele><time>2026-04-24T15:47:00Z</time></trkpt><trkpt lat="46.061741151645855" lon="12.553795226076984"><ele>149.7142857142857</ele><time>2026-04-24T15:47:09Z</time></trkpt><trkpt lat="46.06170993765505" lon="12.553707207715439"><ele>150.0</ele><time>2026-04-24T15:47:19Z</time></trkpt><trkpt lat="46.06175338385674" lon="12.553641214737292"><ele>150.14285714285714</ele><time>2026-04-24T15:47:59Z</time></trkpt><trkpt lat="46.06173610114989" lon="12.553527507171763"><ele>150.28571428571428</ele><time>2026-04-24T15:48:02Z</time></trkpt><trkpt lat="46.0617550017701" lon="12.553436362497653"><ele>150.42857142857144</ele><time>2026-04-24T15:48:05Z</time></trkpt><trkpt lat="46.06178905884883" lon="12.553342503556534"><ele>150.57142857142856</ele><time>2026-04-24T15:48:09.999Z</time></trkpt><trkpt lat="46.061822761542636" lon="12.553259686424703"><ele>150.71428571428572</ele><time>2026-04-24T15:48:15.999Z</time></trkpt><trkpt lat="46.061815635331" lon="12.5531545778923"><ele>150.85714285714286</ele><time>2026-04-24T15:48:32Z</time></trkpt><trkpt lat="46.06183265823759" lon="12.553248103552692"><ele>151.0</ele><time>2026-04-24T15:48:50Z</time></trkpt><trkpt lat="46.06188569450883" lon="12.55313286997155"><ele>151.00000000000003</ele><time>2026-04-24T15:49:20Z</time></trkpt><trkpt lat="46.061921248971196" lon="12.553049384204222"><ele>151.0</ele><time>2026-04-24T15:49:24Z</time></trkpt><trkpt lat="46.06194553463778" lon="12.552954982982873"><ele>151.0</ele><time>2026-04-24T15:49:30Z</time></trkpt><trkpt lat="46.06194684167316" lon="12.552860378311841"><ele>151.0</ele><time>2026-04-24T15:49:36Z</time></trkpt><trkpt lat="46.06198616045694" lon="12.552751016631337"><ele>151.0</ele><time>2026-04-24T15:49:45Z</time></trkpt><trkpt lat="46.0619657271571" lon="12.552659058185943"><ele>151.00000000000003</ele><time>2026-04-24T15:49:58Z</time></trkpt><trkpt lat="46.061978178001354" lon="12.552552650666534"><ele>151.0</ele><time>2026-04-24T15:50:03Z</time></trkpt><trkpt lat="46.06197262049961" lon="12.55244983707857"><ele>151.00000000000003</ele><time>2026-04-24T15:50:12Z</time></trkpt><trkpt lat="46.06196163366018" lon="12.552355585421198"><ele>151.0</ele><time>2026-04-24T15:50:17.999Z</time></trkpt><trkpt lat="46.06201101821097" lon="12.552279390879729"><ele>151.0</ele><time>2026-04-24T15:50:23Z</time></trkpt><trkpt lat="46.06198181315118" lon="12.552182460100717"><ele>151.0</ele><time>2026-04-24T15:50:28Z</time></trkpt><trkpt lat="46.06197985774167" lon="12.55208668576529"><ele>151.0</ele><time>2026-04-24T15:50:34Z</time></trkpt><trkpt lat="46.06200909495877" lon="12.55199206235427"><ele>151.00000000000003</ele><time>2026-04-24T15:50:39Z</time></trkpt><trkpt lat="46.06202647236138" lon="12.552087853714113"><ele>151.0</ele><time>2026-04-24T15:51:26Z</time></trkpt><trkpt lat="46.06206379674794" lon="12.552173117524097"><ele>151.00000000000003</ele><time>2026-04-24T15:51:33Z</time></trkpt><trkpt lat="46.06207515614382" lon="12.552262867387327"><ele>151.0</ele><time>2026-04-24T15:51:39Z</time></trkpt><trkpt lat="46.062102846859474" lon="12.55234892138032"><ele>151.0</ele><time>2026-04-24T15:51:45Z</time></trkpt><trkpt lat="46.06214943461351" lon="12.552427445677525"><ele>151.0</ele><time>2026-04-24T15:51:54Z</time></trkpt><trkpt lat="46.06215027743511" lon="12.552531520499299"><ele>151.0</ele><time>2026-04-24T15:52:01Z</time></trkpt><trkpt lat="46.06220248988682" lon="12.55259422834313"><ele>151.00000000000003</ele><time>2026-04-24T15:52:09Z</time></trkpt><trkpt lat="46.062238869885135" lon="12.552676848314597"><ele>151.0</ele><time>2026-04-24T15:52:16.999Z</time></trkpt><trkpt lat="46.06226793403704" lon="12.552763722751648"><ele>151.00000000000003</ele><time>2026-04-24T15:52:25.999Z</time></trkpt><trkpt lat="46.062261663553535" lon="12.552860208012861"><ele>151.0</ele><time>2026-04-24T15:52:33Z</time></trkpt><trkpt lat="46.0622732382128" lon="12.552963022159851"><ele>151.0</ele><time>2026-04-24T15:52:40Z</time></trkpt><trkpt lat="46.06231250942162" lon="12.55304588943866"><ele>151.0</ele><time>2026-04-24T15:52:44Z</time></trkpt><trkpt lat="46.062300330558905" lon="12.553140155777943"><ele>151.0</ele><time>2026-04-24T15:52:56Z</time></trkpt><trkpt lat="46.06233253837609" lon="12.553221420540764"><ele>151.00000000000003</ele><time>2026-04-24T15:53:02Z</time></trkpt><trkpt lat="46.062333286637134" lon="12.55332217931659"><ele>151.0</ele><time>2026-04-24T15:53:09Z</time></trkpt><trkpt lat="46.062375639272396" lon="12.553391334350932"><ele>151.00000000000003</ele><time>2026-04-24T15:53:13Z</time></trkpt><trkpt lat="46.062376313325096" lon="12.553490455134558"><ele>151.0</ele><time>2026-04-24T15:53:18Z</time></trkpt><trkpt lat="46.06235318267913" lon="12.553576683864332"><ele>151.0</ele><time>2026-04-24T15:53:26Z</time></trkpt><trkpt lat="46.06239313465809" lon="12.553667371063172"><ele>151.0</ele><time>2026-04-24T15:53:34Z</time></trkpt><trkpt lat="46.0624243340155" lon="12.553758824058871"><ele>151.0</ele><time>2026-04-24T15:53:41Z</time></trkpt><trkpt lat="46.06246989903619" lon="12.553836741677525"><ele>151.00000000000003</ele><time>2026-04-24T15:53:46Z</time></trkpt><trkpt lat="46.06247545252545" lon="12.553933508832076"><ele>151.0</ele><time>2026-04-24T15:53:55Z</time></trkpt><trkpt lat="46.06247895823191" lon="12.554035962787877"><ele>152.14285714285717</ele><time>2026-04-24T15:54:03Z</time></trkpt><trkpt lat="46.062520375735296" lon="12.554105855962822"><ele>153.28571428571428</ele><time>2026-04-24T15:54:09Z</time></trkpt><trkpt lat="46.062569067099815" lon="12.5541861161633"><ele>154.42857142857144</ele><time>2026-04-24T15:54:16Z</time></trkpt><trkpt lat="46.06258597287063" lon="12.554282580365683"><ele>155.57142857142858</ele><time>2026-04-24T15:54:36Z</time></trkpt><trkpt lat="46.06260845766157" lon="12.554369804844148"><ele>156.71428571428572</ele><time>2026-04-24T15:54:39Z</time></trkpt><trkpt lat="46.06268255956928" lon="12.554337415862552"><ele>157.85714285714286</ele><time>2026-04-24T15:54:44Z</time></trkpt><trkpt lat="46.0627392584203" lon="12.55427138586783"><ele>159.0</ele><time>2026-04-24T15:54:49Z</time></trkpt><trkpt lat="46.06280641525726" lon="12.554239914726983"><ele>159.0</ele><time>2026-04-24T15:54:55Z</time></trkpt><trkpt lat="46.06293777210689" lon="12.554181447138737"><ele>159.0</ele><time>2026-04-24T15:55:08Z</time></trkpt><trkpt lat="46.06299916011905" lon="12.554111637045867"><ele>159.0</ele><time>2026-04-24T15:55:13Z</time></trkpt><trkpt lat="46.06306383480749" lon="12.554036979558903"><ele>159.0</ele><time>2026-04-24T15:55:17Z</time></trkpt><trkpt lat="46.06306041789582" lon="12.554144797244193"><ele>159.0</ele><time>2026-04-24T15:55:45Z</time></trkpt><trkpt lat="46.06311581833691" lon="12.554232730951625"><ele>159.0</ele><time>2026-04-24T15:55:58Z</time></trkpt><trkpt lat="46.0631673474521" lon="12.554284922575427"><ele>159.0</ele><time>2026-04-24T15:56:03Z</time></trkpt><trkpt lat="46.06319064883423" lon="12.55439273089182"><ele>159.0</ele><time>2026-04-24T15:56:11Z</time></trkpt><trkpt lat="46.06324396344018" lon="12.554457042189153"><ele>159.0</ele><time>2026-04-24T15:56:21Z</time></trkpt><trkpt lat="46.063297079706004" lon="12.55450716618757"><ele>159.0</ele><time>2026-04-24T15:56:26Z</time></trkpt><trkpt lat="46.063334142676126" lon="12.55458918199796"><ele>159.0</ele><time>2026-04-24T15:56:31.999Z</time></trkpt><trkpt lat="46.063393352115376" lon="12.554660240419947"><ele>159.0</ele><time>2026-04-24T15:56:38.999Z</time></trkpt><trkpt lat="46.063436028611896" lon="12.554738797468277"><ele>161.0</ele><time>2026-04-24T15:56:45Z</time></trkpt><trkpt lat="46.063426791203355" lon="12.554835245598333"><ele>163.0</ele><time>2026-04-24T15:56:54Z</time></trkpt><trkpt lat="46.063461022934185" lon="12.554918259576912"><ele>165.0</ele><time>2026-04-24T15:56:59Z</time></trkpt><trkpt lat="46.06350334167895" lon="12.55498836251954"><ele>167.0</ele><time>2026-04-24T15:57:04Z</time></trkpt><trkpt lat="46.06356513559918" lon="12.55503508477385"><ele>169.0</ele><time>2026-04-24T15:57:10Z</time></trkpt><trkpt lat="46.06363077807601" lon="12.555059786771322"><ele>171.0</ele><time>2026-04-24T15:57:16Z</time></trkpt><trkpt lat="46.0637098322249" lon="12.55510921753213"><ele>173.0</ele><time>2026-04-24T15:57:25Z</time></trkpt><trkpt lat="46.06376630558259" lon="12.5551643595058"><ele>173.0</ele><time>2026-04-24T15:57:34Z</time></trkpt><trkpt lat="46.063822903938885" lon="12.555231129005575"><ele>173.0</ele><time>2026-04-24T15:57:40Z</time></trkpt><trkpt lat="46.063867431762866" lon="12.555311096462882"><ele>173.0</ele><time>2026-04-24T15:57:45Z</time></trkpt><trkpt lat="46.06390879442054" lon="12.555398222472778"><ele>173.0</ele><time>2026-04-24T15:57:53Z</time></trkpt><trkpt lat="46.06394039799071" lon="12.555481276377934"><ele>173.0</ele><time>2026-04-24T15:58:01Z</time></trkpt><trkpt lat="46.06398774338324" lon="12.55555425745806"><ele>173.0</ele><time>2026-04-24T15:58:09Z</time></trkpt><trkpt lat="46.06405044471645" lon="12.555602327362463"><ele>173.0</ele><time>2026-04-24T15:58:17Z</time></trkpt><trkpt lat="46.06410724931019" lon="12.555651276552119"><ele>174.5</ele><time>2026-04-24T15:58:23Z</time></trkpt><trkpt lat="46.06411686491346" lon="12.555748197523055"><ele>176.0</ele><time>2026-04-24T15:58:26.999Z</time></trkpt><trkpt lat="46.064178015961886" lon="12.555777471377366"><ele>177.5</ele><time>2026-04-24T15:58:33.999Z</time></trkpt><trkpt lat="46.06424260634907" lon="12.555783419156054"><ele>179.0</ele><time>2026-04-24T15:58:39.999Z</time></trkpt><trkpt lat="46.0643083053392" lon="12.555789750135496"><ele>180.5</ele><time>2026-04-24T15:58:43.999Z</time></trkpt><trkpt lat="46.06435128907523" lon="12.555857192157811"><ele>182.0</ele><time>2026-04-24T15:58:49Z</time></trkpt><trkpt lat="46.06445831591074" lon="12.555983976711321"><ele>182.0</ele><time>2026-04-24T15:59:02Z</time></trkpt><trkpt lat="46.06452220417868" lon="12.556022382478517"><ele>182.0</ele><time>2026-04-24T15:59:07Z</time></trkpt><trkpt lat="46.06454954587541" lon="12.556118242467612"><ele>182.0</ele><time>2026-04-24T15:59:16Z</time></trkpt><trkpt lat="46.06460125118452" lon="12.556199718609905"><ele>182.0</ele><time>2026-04-24T15:59:22Z</time></trkpt><trkpt lat="46.064658345204094" lon="12.556257463429414"><ele>182.0</ele><time>2026-04-24T15:59:26Z</time></trkpt><trkpt lat="46.06467641246614" lon="12.556351306712305"><ele>182.0</ele><time>2026-04-24T15:59:32Z</time></trkpt><trkpt lat="46.064667298342435" lon="12.556454557736304"><ele>182.0</ele><time>2026-04-24T15:59:40Z</time></trkpt><trkpt lat="46.06468074884477" lon="12.556552821920812"><ele>182.42857142857142</ele><time>2026-04-24T15:59:44Z</time></trkpt><trkpt lat="46.06472067187732" lon="12.556647654953986"><ele>182.85714285714286</ele><time>2026-04-24T15:59:52Z</time></trkpt><trkpt lat="46.06474623129929" lon="12.556734138513715"><ele>183.28571428571428</ele><time>2026-04-24T15:59:57Z</time></trkpt><trkpt lat="46.06472447292936" lon="12.556835121796162"><ele>183.71428571428572</ele><time>2026-04-24T16:00:07Z</time></trkpt><trkpt lat="46.06467406757285" lon="12.556896932147046"><ele>184.14285714285714</ele><time>2026-04-24T16:00:14Z</time></trkpt><trkpt lat="46.06464532308515" lon="12.556990424867742"><ele>184.57142857142856</ele><time>2026-04-24T16:00:20Z</time></trkpt><trkpt lat="46.06463210064928" lon="12.557090097905265"><ele>185.0</ele><time>2026-04-24T16:00:26Z</time></trkpt><trkpt lat="46.06465883817441" lon="12.557172920937385"><ele>185.85714285714283</ele><time>2026-04-24T16:00:31Z</time></trkpt><trkpt lat="46.06469568650373" lon="12.557262627846727"><ele>186.71428571428572</ele><time>2026-04-24T16:00:35.999Z</time></trkpt><trkpt lat="46.064712585753895" lon="12.557357939961143"><ele>187.57142857142856</ele><time>2026-04-24T16:00:42.999Z</time></trkpt><trkpt lat="46.06475683695802" lon="12.557440390530218"><ele>188.42857142857142</ele><time>2026-04-24T16:00:49.999Z</time></trkpt><trkpt lat="46.06481270204634" lon="12.557523730063359"><ele>189.28571428571428</ele><time>2026-04-24T16:00:56Z</time></trkpt><trkpt lat="46.06486114178748" lon="12.557592937912286"><ele>190.14285714285714</ele><time>2026-04-24T16:01:01Z</time></trkpt><trkpt lat="46.06489025762962" lon="12.55767443915068"><ele>191.0</ele><time>2026-04-24T16:01:07Z</time></trkpt><trkpt lat="46.0648938482301" lon="12.557767740836182"><ele>191.2857142857143</ele><time>2026-04-24T16:01:14Z</time></trkpt><trkpt lat="46.06492046264298" lon="12.557872699799296"><ele>191.57142857142856</ele><time>2026-04-24T16:01:21Z</time></trkpt><trkpt lat="46.064954162383664" lon="12.5579661699325"><ele>191.85714285714286</ele><time>2026-04-24T16:01:27Z</time></trkpt><trkpt lat="46.06495294325253" lon="12.558057258083291"><ele>192.14285714285717</ele><time>2026-04-24T16:01:37Z</time></trkpt><trkpt lat="46.06498709858768" lon="12.558143332552653"><ele>192.42857142857144</ele><time>2026-04-24T16:01:48Z</time></trkpt><trkpt lat="46.065029649719335" lon="12.558233885066207"><ele>192.71428571428572</ele><time>2026-04-24T16:01:55Z</time></trkpt><trkpt lat="46.06506526881503" lon="12.558309069720481"><ele>193.0</ele><time>2026-04-24T16:02:02Z</time></trkpt><trkpt lat="46.0651349830058" lon="12.55834704028371"><ele>193.8</ele><time>2026-04-24T16:02:44.999Z</time></trkpt><trkpt lat="46.06518439699964" lon="12.55844902761005"><ele>194.60000000000002</ele><time>2026-04-24T16:02:52.999Z</time></trkpt><trkpt lat="46.06520310287835" lon="12.558538698433333"><ele>195.39999999999998</ele><time>2026-04-24T16:03:01Z</time></trkpt><trkpt lat="46.0652779142077" lon="12.558575637667913"><ele>196.2</ele><time>2026-04-24T16:03:12Z</time></trkpt><trkpt lat="46.06532196358842" lon="12.558647765260778"><ele>197.0</ele><time>2026-04-24T16:03:18Z</time></trkpt><trkpt lat="46.06553217855529" lon="12.558655461266829"><ele>197.33333333333334</ele><time>2026-04-24T16:03:35Z</time></trkpt><trkpt lat="46.06558454428272" lon="12.558708843366663"><ele>197.66666666666669</ele><time>2026-04-24T16:03:43Z</time></trkpt><trkpt lat="46.065643369724306" lon="12.558805334057945"><ele>198.0</ele><time>2026-04-24T16:03:55Z</time></trkpt><trkpt lat="46.065704237855286" lon="12.558879654420442"><ele>198.33333333333331</ele><time>2026-04-24T16:04:22Z</time></trkpt><trkpt lat="46.06571950671058" lon="12.558998610307277"><ele>198.66666666666666</ele><time>2026-04-24T16:04:29Z</time></trkpt><trkpt lat="46.065770655352026" lon="12.559061528695823"><ele>199.0</ele><time>2026-04-24T16:04:37Z</time></trkpt><trkpt lat="46.06588218927514" lon="12.559081674751765"><ele>198.99999999999997</ele><time>2026-04-24T16:05:39Z</time></trkpt><trkpt lat="46.06596260185992" lon="12.559087606853891"><ele>199.0</ele><time>2026-04-24T16:06:02Z</time></trkpt><trkpt lat="46.06603628619041" lon="12.559219394445753"><ele>199.0</ele><time>2026-04-24T16:06:08Z</time></trkpt><trkpt lat="46.06600934198881" lon="12.559307398094342"><ele>199.0</ele><time>2026-04-24T16:06:12Z</time></trkpt><trkpt lat="46.065974931897976" lon="12.559392249721427"><ele>198.99999999999997</ele><time>2026-04-24T16:06:19Z</time></trkpt><trkpt lat="46.066026741707354" lon="12.559455334572808"><ele>199.0</ele><time>2026-04-24T16:06:33Z</time></trkpt><trkpt lat="46.0660591343238" lon="12.559554452695156"><ele>199.14285714285714</ele><time>2026-04-24T16:06:40Z</time></trkpt><trkpt lat="46.06604283674203" lon="12.559647260344233"><ele>199.28571428571428</ele><time>2026-04-24T16:06:48Z</time></trkpt><trkpt lat="46.065965584912725" lon="12.559633349352588"><ele>199.42857142857144</ele><time>2026-04-24T16:06:50Z</time></trkpt><trkpt lat="46.06598965758448" lon="12.559738862950294"><ele>199.57142857142856</ele><time>2026-04-24T16:06:55Z</time></trkpt><trkpt lat="46.066032078605346" lon="12.559823875664392"><ele>199.71428571428572</ele><time>2026-04-24T16:07:02Z</time></trkpt><trkpt lat="46.06600414174954" lon="12.559927528904081"><ele>199.85714285714286</ele><time>2026-04-24T16:07:08.999Z</time></trkpt><trkpt lat="46.06599685256158" lon="12.560030078405942"><ele>200.0</ele><time>2026-04-24T16:07:15Z</time></trkpt><trkpt lat="46.06599397723989" lon="12.560124905674721"><ele>200.00000000000003</ele><time>2026-04-24T16:07:23Z</time></trkpt><trkpt lat="46.06598368529118" lon="12.560219873682382"><ele>200.0</ele><time>2026-04-24T16:07:30Z</time></trkpt><trkpt lat="46.065944299647086" lon="12.560304953919092"><ele>200.0</ele><time>2026-04-24T16:07:36Z</time></trkpt><trkpt lat="46.065923231198745" lon="12.560409544874508"><ele>200.0</ele><time>2026-04-24T16:07:43Z</time></trkpt><trkpt lat="46.065939341515644" lon="12.560502629999258"><ele>200.0</ele><time>2026-04-24T16:07:46Z</time></trkpt><trkpt lat="46.065984206477594" lon="12.560602758911982"><ele>200.00000000000003</ele><time>2026-04-24T16:07:56Z</time></trkpt><trkpt lat="46.06602408021059" lon="12.56067941186042"><ele>200.0</ele><time>2026-04-24T16:08:08Z</time></trkpt><trkpt lat="46.066046525292904" lon="12.560771181097302"><ele>199.71428571428572</ele><time>2026-04-24T16:08:13Z</time></trkpt><trkpt lat="46.06608235896405" lon="12.560858605794225"><ele>199.42857142857144</ele><time>2026-04-24T16:08:18Z</time></trkpt><trkpt lat="46.06611926479735" lon="12.5609350589112"><ele>199.14285714285717</ele><time>2026-04-24T16:08:24Z</time></trkpt><trkpt lat="46.066152268249404" lon="12.561012851877635"><ele>198.85714285714286</ele><time>2026-04-24T16:08:30Z</time></trkpt><trkpt lat="46.06618445472877" lon="12.561111520124191"><ele>198.57142857142856</ele><time>2026-04-24T16:08:37Z</time></trkpt><trkpt lat="46.066152341612636" lon="12.561217768789504"><ele>198.2857142857143</ele><time>2026-04-24T16:08:44Z</time></trkpt><trkpt lat="46.06614738200084" lon="12.561321373505942"><ele>198.0</ele><time>2026-04-24T16:08:50Z</time></trkpt><trkpt lat="46.06606285459553" lon="12.561323313707785"><ele>196.83333333333334</ele><time>2026-04-24T16:08:57Z</time></trkpt><trkpt lat="46.06599035164225" lon="12.561412142189754"><ele>195.66666666666666</ele><time>2026-04-24T16:09:04Z</time></trkpt><trkpt lat="46.065983988576434" lon="12.561527589359327"><ele>194.5</ele><time>2026-04-24T16:09:11Z</time></trkpt><trkpt lat="46.06599958564162" lon="12.561618997604686"><ele>193.33333333333331</ele><time>2026-04-24T16:09:19Z</time></trkpt><trkpt lat="46.06597226166746" lon="12.561704953950422"><ele>192.16666666666666</ele><time>2026-04-24T16:09:26Z</time></trkpt><trkpt lat="46.06595649947322" lon="12.561823605941006"><ele>191.0</ele><time>2026-04-24T16:09:31Z</time></trkpt><trkpt lat="46.06601774444097" lon="12.56187695856005"><ele>191.0</ele><time>2026-04-24T16:09:37Z</time></trkpt><trkpt lat="46.06609091542485" lon="12.561927749675801"><ele>191.0</ele><time>2026-04-24T16:09:44Z</time></trkpt><trkpt lat="46.06611444122762" lon="12.562014038581692"><ele>191.0</ele><time>2026-04-24T16:09:47Z</time></trkpt><trkpt lat="46.06611876240643" lon="12.56210925154183"><ele>191.0</ele><time>2026-04-24T16:09:53Z</time></trkpt><trkpt lat="46.06614787108079" lon="12.562203680441867"><ele>191.0</ele><time>2026-04-24T16:10:54Z</time></trkpt><trkpt lat="46.06609566037464" lon="12.56228892310997"><ele>191.0</ele><time>2026-04-24T16:11:07Z</time></trkpt><trkpt lat="46.066063840715785" lon="12.562378384802038"><ele>191.0</ele><time>2026-04-24T16:11:13Z</time></trkpt><trkpt lat="46.06616446085892" lon="12.562458955054588"><ele>190.57142857142858</ele><time>2026-04-24T16:11:31Z</time></trkpt><trkpt lat="46.06620984320404" lon="12.562546176258447"><ele>190.14285714285714</ele><time>2026-04-24T16:11:36Z</time></trkpt><trkpt lat="46.06624730182894" lon="12.562633544978322"><ele>189.71428571428572</ele><time>2026-04-24T16:11:42Z</time></trkpt><trkpt lat="46.06623292702155" lon="12.56272427016781"><ele>189.28571428571428</ele><time>2026-04-24T16:11:57Z</time></trkpt><trkpt lat="46.06624028568861" lon="12.5628202950241"><ele>188.85714285714283</ele><time>2026-04-24T16:12:03Z</time></trkpt><trkpt lat="46.066236150687985" lon="12.562914623791118"><ele>188.42857142857142</ele><time>2026-04-24T16:12:11Z</time></trkpt><trkpt lat="46.06625840946267" lon="12.563016774120067"><ele>188.0</ele><time>2026-04-24T16:12:18Z</time></trkpt><trkpt lat="46.06632603339795" lon="12.563018492084089"><ele>187.28571428571428</ele><time>2026-04-24T16:12:22Z</time></trkpt><trkpt lat="46.06641165488674" lon="12.56304187120232"><ele>186.57142857142856</ele><time>2026-04-24T16:12:26Z</time></trkpt><trkpt lat="46.06647512378521" lon="12.56309797321024"><ele>185.85714285714286</ele><time>2026-04-24T16:12:33Z</time></trkpt><trkpt lat="46.06644874365579" lon="12.563192321104424"><ele>185.14285714285714</ele><time>2026-04-24T16:12:45Z</time></trkpt><trkpt lat="46.066468262861875" lon="12.563279247995256"><ele>184.42857142857144</ele><time>2026-04-24T16:12:53Z</time></trkpt><trkpt lat="46.06646619818633" lon="12.563385567532444"><ele>183.71428571428572</ele><time>2026-04-24T16:13:02Z</time></trkpt><trkpt lat="46.06643183779761" lon="12.563475396908451"><ele>183.0</ele><time>2026-04-24T16:13:10Z</time></trkpt><trkpt lat="46.0664243999219" lon="12.563592213025531"><ele>183.0</ele><time>2026-04-24T16:13:22Z</time></trkpt><trkpt lat="46.06645822359288" lon="12.563683178606487"><ele>183.0</ele><time>2026-04-24T16:13:42Z</time></trkpt><trkpt lat="46.066456435810444" lon="12.563779086942336"><ele>183.0</ele><time>2026-04-24T16:13:48Z</time></trkpt><trkpt lat="46.06647613787047" lon="12.56388480342513"><ele>183.0</ele><time>2026-04-24T16:13:53Z</time></trkpt><trkpt lat="46.066527723419625" lon="12.563960997724253"><ele>183.0</ele><time>2026-04-24T16:13:56Z</time></trkpt><trkpt lat="46.06653457605769" lon="12.564053414697788"><ele>183.0</ele><time>2026-04-24T16:14:00Z</time></trkpt><trkpt lat="46.06653789459824" lon="12.5641558459728"><ele>183.0</ele><time>2026-04-24T16:14:06Z</time></trkpt><trkpt lat="46.06654880960751" lon="12.564254068418098"><ele>182.5</ele><time>2026-04-24T16:14:11Z</time></trkpt><trkpt lat="46.06659139130013" lon="12.564179658462765"><ele>182.0</ele><time>2026-04-24T16:14:19Z</time></trkpt><trkpt lat="46.06666344125364" lon="12.564154580820295"><ele>181.5</ele><time>2026-04-24T16:14:21Z</time></trkpt><trkpt lat="46.06674402733455" lon="12.564116978901229"><ele>181.0</ele><time>2026-04-24T16:14:26Z</time></trkpt><trkpt lat="46.066819381272474" lon="12.564045365607894"><ele>180.5</ele><time>2026-04-24T16:14:31Z</time></trkpt><trkpt lat="46.066865327130174" lon="12.563956015714064"><ele>180.0</ele><time>2026-04-24T16:14:35Z</time></trkpt><trkpt lat="46.06692172484016" lon="12.563880253996546"><ele>180.0</ele><time>2026-04-24T16:14:41Z</time></trkpt><trkpt lat="46.066972689195396" lon="12.563811487383685"><ele>180.0</ele><time>2026-04-24T16:14:47Z</time></trkpt><trkpt lat="46.06696457620713" lon="12.563700708635523"><ele>180.0</ele><time>2026-04-24T16:14:54Z</time></trkpt><trkpt lat="46.066978426650664" lon="12.56360657532496"><ele>180.0</ele><time>2026-04-24T16:15:00Z</time></trkpt><trkpt lat="46.06696661190895" lon="12.56350891722358"><ele>180.0</ele><time>2026-04-24T16:15:08Z</time></trkpt><trkpt lat="46.06696899944168" lon="12.563387837059109"><ele>180.0</ele><time>2026-04-24T16:15:14Z</time></trkpt><trkpt lat="46.066889734312994" lon="12.563271221686009"><ele>181.0</ele><time>2026-04-24T16:15:20.999Z</time></trkpt><trkpt lat="46.066849902612454" lon="12.563189048247178"><ele>182.0</ele><time>2026-04-24T16:15:26.999Z</time></trkpt><trkpt lat="46.066861894299876" lon="12.563087320073153"><ele>183.0</ele><time>2026-04-24T16:15:36Z</time></trkpt><trkpt lat="46.066905369111986" lon="12.562998654745307"><ele>184.0</ele><time>2026-04-24T16:15:44Z</time></trkpt><trkpt lat="46.066934877852376" lon="12.562895243608791"><ele>185.0</ele><time>2026-04-24T16:15:51Z</time></trkpt><trkpt lat="46.06692686585497" lon="12.562803220746607"><ele>186.0</ele><time>2026-04-24T16:16:02Z</time></trkpt><trkpt lat="46.06693939006876" lon="12.562709640087723"><ele>187.0</ele><time>2026-04-24T16:16:09Z</time></trkpt><trkpt lat="46.06699358276536" lon="12.56259775032767"><ele>187.85714285714286</ele><time>2026-04-24T16:16:20Z</time></trkpt><trkpt lat="46.06705313910088" lon="12.562529458772941"><ele>188.71428571428572</ele><time>2026-04-24T16:16:33Z</time></trkpt><trkpt lat="46.067074548633194" lon="12.562422373950351"><ele>189.57142857142858</ele><time>2026-04-24T16:16:38Z</time></trkpt><trkpt lat="46.067110529911055" lon="12.562326926091231"><ele>190.42857142857144</ele><time>2026-04-24T16:16:45Z</time></trkpt><trkpt lat="46.067138490894145" lon="12.562244538285995"><ele>191.28571428571428</ele><time>2026-04-24T16:16:52Z</time></trkpt><trkpt lat="46.06720444982145" lon="12.562215647698444"><ele>192.14285714285717</ele><time>2026-04-24T16:16:59Z</time></trkpt><trkpt lat="46.067239862062706" lon="12.562120054524382"><ele>193.0</ele><time>2026-04-24T16:17:08Z</time></trkpt><trkpt lat="46.067295213418376" lon="12.562074415399106"><ele>193.57142857142858</ele><time>2026-04-24T16:17:16Z</time></trkpt><trkpt lat="46.06732320122955" lon="12.561983847777949"><ele>194.14285714285714</ele><time>2026-04-24T16:17:24Z</time></trkpt><trkpt lat="46.06733681786897" lon="12.561886638572064"><ele>194.71428571428572</ele><time>2026-04-24T16:17:32Z</time></trkpt><trkpt lat="46.067357530557054" lon="12.561774465369705"><ele>195.28571428571428</ele><time>2026-04-24T16:17:37.999Z</time></trkpt><trkpt lat="46.06738034009384" lon="12.56167217555034"><ele>195.85714285714286</ele><time>2026-04-24T16:17:46Z</time></trkpt><trkpt lat="46.067406863468385" lon="12.561572200944953"><ele>196.42857142857144</ele><time>2026-04-24T16:17:51Z</time></trkpt><trkpt lat="46.06741733937434" lon="12.561472773683823"><ele>197.0</ele><time>2026-04-24T16:17:58Z</time></trkpt><trkpt lat="46.067434822546645" lon="12.56138432967879"><ele>198.28571428571428</ele><time>2026-04-24T16:18:06Z</time></trkpt><trkpt lat="46.0674446582455" lon="12.561293092478932"><ele>199.57142857142858</ele><time>2026-04-24T16:18:12Z</time></trkpt><trkpt lat="46.06743178389906" lon="12.561189586735296"><ele>200.85714285714283</ele><time>2026-04-24T16:18:19Z</time></trkpt><trkpt lat="46.06746642659598" lon="12.561102394895466"><ele>202.14285714285714</ele><time>2026-04-24T16:18:27Z</time></trkpt><trkpt lat="46.067469417029194" lon="12.560999655071928"><ele>203.42857142857142</ele><time>2026-04-24T16:18:34Z</time></trkpt><trkpt lat="46.06750076193323" lon="12.560887939586133"><ele>204.7142857142857</ele><time>2026-04-24T16:18:43Z</time></trkpt><trkpt lat="46.06754646555031" lon="12.560802477949657"><ele>206.0</ele><time>2026-04-24T16:18:51Z</time></trkpt><trkpt lat="46.0675773764399" lon="12.560705229208184"><ele>207.42857142857142</ele><time>2026-04-24T16:18:57Z</time></trkpt><trkpt lat="46.06758326129541" lon="12.560611387921153"><ele>208.85714285714286</ele><time>2026-04-24T16:19:44.999Z</time></trkpt><trkpt lat="46.06764253265957" lon="12.560565126509527"><ele>210.28571428571428</ele><time>2026-04-24T16:19:50Z</time></trkpt><trkpt lat="46.067697838889686" lon="12.560504947526585"><ele>211.71428571428572</ele><time>2026-04-24T16:19:56Z</time></trkpt><trkpt lat="46.06773442504444" lon="12.560419860859065"><ele>213.14285714285714</ele><time>2026-04-24T16:20:03Z</time></trkpt><trkpt lat="46.067715883275895" lon="12.560324966776633"><ele>214.57142857142856</ele><time>2026-04-24T16:20:09Z</time></trkpt><trkpt lat="46.067656383226584" lon="12.560276518978386"><ele>216.0</ele><time>2026-04-24T16:20:13Z</time></trkpt><trkpt lat="46.06757617667444" lon="12.560221917358964"><ele>217.14285714285714</ele><time>2026-04-24T16:20:18Z</time></trkpt><trkpt lat="46.067500150988344" lon="12.560161751915373"><ele>218.28571428571428</ele><time>2026-04-24T16:21:15Z</time></trkpt><trkpt lat="46.06754453337007" lon="12.560079139129412"><ele>219.42857142857144</ele><time>2026-04-24T16:21:23Z</time></trkpt><trkpt lat="46.06756958821683" lon="12.55997518125362"><ele>220.57142857142856</ele><time>2026-04-24T16:21:30Z</time></trkpt><trkpt lat="46.067573994050534" lon="12.559870122852674"><ele>221.71428571428572</ele><time>2026-04-24T16:21:34Z</time></trkpt><trkpt lat="46.06752276928669" lon="12.559809264294612"><ele>222.85714285714286</ele><time>2026-04-24T16:21:56Z</time></trkpt><trkpt lat="46.06750267399458" lon="12.559710721545791"><ele>224.0</ele><time>2026-04-24T16:22:03Z</time></trkpt><trkpt lat="46.06748601003447" lon="12.559596598897693"><ele>225.50000000000003</ele><time>2026-04-24T16:22:19Z</time></trkpt><trkpt lat="46.06745559058489" lon="12.559515002181595"><ele>227.0</ele><time>2026-04-24T16:22:33Z</time></trkpt><trkpt lat="46.06736743780221" lon="12.559475538229844"><ele>228.5</ele><time>2026-04-24T16:22:36Z</time></trkpt><trkpt lat="46.067303967096514" lon="12.559451530262352"><ele>230.0</ele><time>2026-04-24T16:22:43Z</time></trkpt><trkpt lat="46.067234488182116" lon="12.559390997173779"><ele>231.50000000000003</ele><time>2026-04-24T16:22:52Z</time></trkpt><trkpt lat="46.067152925991536" lon="12.559356596861019"><ele>233.0</ele><time>2026-04-24T16:23:00Z</time></trkpt><trkpt lat="46.06714300169352" lon="12.559264542062996"><ele>230.0</ele><time>2026-04-24T16:23:04Z</time></trkpt><trkpt lat="46.067076754366795" lon="12.559227633365609"><ele>227.0</ele><time>2026-04-24T16:23:11Z</time></trkpt><trkpt lat="46.06698891737465" lon="12.559275955211087"><ele>224.0</ele><time>2026-04-24T16:23:36Z</time></trkpt><trkpt lat="46.06691755204708" lon="12.559274163282591"><ele>221.0</ele><time>2026-04-24T16:23:50.999Z</time></trkpt><trkpt lat="46.06685538838088" lon="12.559213267158741"><ele>218.0</ele><time>2026-04-24T16:24:01Z</time></trkpt><trkpt lat="46.066827826698706" lon="12.55929756701005"><ele>215.0</ele><time>2026-04-24T16:24:05Z</time></trkpt><trkpt lat="46.06677495845913" lon="12.559235304118666"><ele>212.0</ele><time>2026-04-24T16:24:09Z</time></trkpt><trkpt lat="46.06672622446032" lon="12.559175367249473"><ele>212.0</ele><time>2026-04-24T16:24:15Z</time></trkpt><trkpt lat="46.066660699805254" lon="12.559202798536495"><ele>212.0</ele><time>2026-04-24T16:24:22Z</time></trkpt><trkpt lat="46.06660715460009" lon="12.559143454372698"><ele>212.0</ele><time>2026-04-24T16:24:31Z</time></trkpt><trkpt lat="46.066567301666275" lon="12.55904703779872"><ele>212.0</ele><time>2026-04-24T16:24:39Z</time></trkpt><trkpt lat="46.06650689873809" lon="12.558964059120196"><ele>212.0</ele><time>2026-04-24T16:24:43Z</time></trkpt><trkpt lat="46.06643183700825" lon="12.558999200421752"><ele>212.0</ele><time>2026-04-24T16:24:50Z</time></trkpt><trkpt lat="46.06636579806333" lon="12.559030637138324"><ele>212.0</ele><time>2026-04-24T16:24:54Z</time></trkpt><trkpt lat="46.06630211718141" lon="12.559003886096972"><ele>211.0</ele><time>2026-04-24T16:25:00Z</time></trkpt><trkpt lat="46.06622388462882" lon="12.558978626180878"><ele>210.0</ele><time>2026-04-24T16:25:05Z</time></trkpt><trkpt lat="46.06616667651318" lon="12.558934740308167"><ele>209.0</ele><time>2026-04-24T16:25:09Z</time></trkpt><trkpt lat="46.06609750758427" lon="12.558912597550517"><ele>208.0</ele><time>2026-04-24T16:25:14Z</time></trkpt><trkpt lat="46.06604051840591" lon="12.55885093124208"><ele>207.0</ele><time>2026-04-24T16:25:17Z</time></trkpt><trkpt lat="46.065983203740615" lon="12.558809871721502"><ele>206.0</ele><time>2026-04-24T16:25:21Z</time></trkpt><trkpt lat="46.0659183249891" lon="12.558749444877948"><ele>205.0</ele><time>2026-04-24T16:25:25Z</time></trkpt><trkpt lat="46.06593559508736" lon="12.558620825259775"><ele>205.0</ele><time>2026-04-24T16:25:39Z</time></trkpt><trkpt lat="46.065959667674576" lon="12.558520274771103"><ele>205.0</ele><time>2026-04-24T16:25:43Z</time></trkpt><trkpt lat="46.06600653664968" lon="12.558448240596158"><ele>205.0</ele><time>2026-04-24T16:25:50Z</time></trkpt><trkpt lat="46.06605268819235" lon="12.558381641000807"><ele>205.0</ele><time>2026-04-24T16:26:02.999Z</time></trkpt><trkpt lat="46.06611783938661" lon="12.558341419589953"><ele>205.0</ele><time>2026-04-24T16:26:09Z</time></trkpt><trkpt lat="46.0661621212074" lon="12.558276646162463"><ele>205.0</ele><time>2026-04-24T16:26:15Z</time></trkpt><trkpt lat="46.06614241014506" lon="12.558171940788998"><ele>205.0</ele><time>2026-04-24T16:26:18Z</time></trkpt><trkpt lat="46.06609577911508" lon="12.55810968617997"><ele>205.0</ele><time>2026-04-24T16:26:23Z</time></trkpt><trkpt lat="46.06603745006047" lon="12.558056426190122"><ele>205.0</ele><time>2026-04-24T16:26:28Z</time></trkpt><trkpt lat="46.06599522444885" lon="12.557988258756513"><ele>205.0</ele><time>2026-04-24T16:26:34Z</time></trkpt><trkpt lat="46.06595539911689" lon="12.557903370788111"><ele>205.0</ele><time>2026-04-24T16:26:42Z</time></trkpt><trkpt lat="46.06600113827741" lon="12.557837635559794"><ele>205.0</ele><time>2026-04-24T16:27:11Z</time></trkpt><trkpt lat="46.06594096112386" lon="12.557788090349698"><ele>205.0</ele><time>2026-04-24T16:27:16Z</time></trkpt><trkpt lat="46.06588135134285" lon="12.557700276259098"><ele>205.0</ele><time>2026-04-24T16:27:21Z</time></trkpt><trkpt lat="46.06585489061892" lon="12.557612529581228"><ele>205.16666666666666</ele><time>2026-04-24T16:27:23Z</time></trkpt><trkpt lat="46.06573668303406" lon="12.557604788155952"><ele>205.33333333333331</ele><time>2026-04-24T16:27:52Z</time></trkpt><trkpt lat="46.06569153275307" lon="12.557533139547152"><ele>205.5</ele><time>2026-04-24T16:28:02Z</time></trkpt><trkpt lat="46.06574960524563" lon="12.557492821690749"><ele>205.66666666666669</ele><time>2026-04-24T16:28:08.999Z</time></trkpt><trkpt lat="46.065811786496724" lon="12.557468901659536"><ele>205.83333333333334</ele><time>2026-04-24T16:28:12Z</time></trkpt><trkpt lat="46.065804402117124" lon="12.55736677394103"><ele>206.0</ele><time>2026-04-24T16:29:12Z</time></trkpt><trkpt lat="46.065866621083856" lon="12.5573371426449"><ele>205.99999999999997</ele><time>2026-04-24T16:29:29Z</time></trkpt><trkpt lat="46.0658062176307" lon="12.55729200783726"><ele>206.0</ele><time>2026-04-24T16:29:40Z</time></trkpt><trkpt lat="46.065811424857465" lon="12.557184586225807"><ele>206.0</ele><time>2026-04-24T16:29:43Z</time></trkpt><trkpt lat="46.06582537387235" lon="12.55708950525308"><ele>206.0</ele><time>2026-04-24T16:29:50Z</time></trkpt><trkpt lat="46.065771532465874" lon="12.557005579799238"><ele>206.0</ele><time>2026-04-24T16:29:57Z</time></trkpt><trkpt lat="46.06577412975644" lon="12.556904318636647"><ele>205.99999999999997</ele><time>2026-04-24T16:30:01Z</time></trkpt><trkpt lat="46.065702952029746" lon="12.556837186059399"><ele>206.0</ele><time>2026-04-24T16:30:07Z</time></trkpt><trkpt lat="46.06563036954538" lon="12.556837261717243"><ele>204.33333333333334</ele><time>2026-04-24T16:30:12.999Z</time></trkpt><trkpt lat="46.06556812955291" lon="12.556853966528378"><ele>202.66666666666669</ele><time>2026-04-24T16:30:23Z</time></trkpt><trkpt lat="46.06549049974071" lon="12.556888703115673"><ele>201.0</ele><time>2026-04-24T16:30:31Z</time></trkpt><trkpt lat="46.06543069779453" lon="12.556855354971942"><ele>199.33333333333331</ele><time>2026-04-24T16:30:37Z</time></trkpt><trkpt lat="46.06535489564247" lon="12.55689123117113"><ele>197.66666666666666</ele><time>2026-04-24T16:30:43Z</time></trkpt><trkpt lat="46.0653909337458" lon="12.557049574544124"><ele>196.0</ele><time>2026-04-24T16:31:08Z</time></trkpt><trkpt lat="46.06545884550058" lon="12.557104392552226"><ele>196.0</ele><time>2026-04-24T16:31:17Z</time></trkpt><trkpt lat="46.065522352778586" lon="12.557150254174035"><ele>196.0</ele><time>2026-04-24T16:31:30Z</time></trkpt><trkpt lat="46.065549753242344" lon="12.557234662510316"><ele>196.0</ele><time>2026-04-24T16:31:58Z</time></trkpt><trkpt lat="46.06551882437084" lon="12.557138605737899"><ele>196.0</ele><time>2026-04-24T16:32:04Z</time></trkpt><trkpt lat="46.06545063176359" lon="12.557180114955072"><ele>196.0</ele><time>2026-04-24T16:32:08.999Z</time></trkpt><trkpt lat="46.065428600670984" lon="12.557285517287232"><ele>196.0</ele><time>2026-04-24T16:32:13.999Z</time></trkpt><trkpt lat="46.06539796481061" lon="12.557374386385119"><ele>196.0</ele><time>2026-04-24T16:32:29Z</time></trkpt><trkpt lat="46.065362968309614" lon="12.557459334667994"><ele>196.0</ele><time>2026-04-24T16:32:40Z</time></trkpt><trkpt lat="46.06534420424838" lon="12.557556843111973"><ele>196.0</ele><time>2026-04-24T16:32:44Z</time></trkpt><trkpt lat="46.06535747543896" lon="12.557648131770401"><ele>196.0</ele><time>2026-04-24T16:32:47Z</time></trkpt><trkpt lat="46.06535403700623" lon="12.55774182851932"><ele>196.0</ele><time>2026-04-24T16:32:52Z</time></trkpt><trkpt lat="46.065394447715406" lon="12.557820842489345"><ele>196.0</ele><time>2026-04-24T16:32:56Z</time></trkpt><trkpt lat="46.06544669949354" lon="12.557908464525427"><ele>196.0</ele><time>2026-04-24T16:33:05Z</time></trkpt><trkpt lat="46.06551153857563" lon="12.557974462069717"><ele>196.0</ele><time>2026-04-24T16:33:36Z</time></trkpt><trkpt lat="46.06546409053748" lon="12.558057004785528"><ele>196.0</ele><time>2026-04-24T16:33:51Z</time></trkpt><trkpt lat="46.065515255522094" lon="12.55813601473075"><ele>196.0</ele><time>2026-04-24T16:33:55Z</time></trkpt><trkpt lat="46.06553034409531" lon="12.558046822279502"><ele>196.0</ele><time>2026-04-24T16:36:16.999Z</time></trkpt><trkpt lat="46.06548823625688" lon="12.557972946166357"><ele>196.0</ele><time>2026-04-24T16:36:19.999Z</time></trkpt><trkpt lat="46.06549619458771" lon="12.557865527706113"><ele>196.0</ele><time>2026-04-24T16:36:24.999Z</time></trkpt><trkpt lat="46.06545516453936" lon="12.557795123280581"><ele>196.0</ele><time>2026-04-24T16:36:30.999Z</time></trkpt><trkpt lat="46.06539894812574" lon="12.557719871341012"><ele>196.0</ele><time>2026-04-24T16:36:37Z</time></trkpt><trkpt lat="46.06532812889385" lon="12.55771137464136"><ele>195.99999999999997</ele><time>2026-04-24T16:36:41Z</time></trkpt><trkpt lat="46.0652532553761" lon="12.55766550932792"><ele>196.0</ele><time>2026-04-24T16:36:44Z</time></trkpt><trkpt lat="46.06525859965649" lon="12.557571063116164"><ele>196.0</ele><time>2026-04-24T16:37:08Z</time></trkpt><trkpt lat="46.0652275645711" lon="12.55748042254506"><ele>196.0</ele><time>2026-04-24T16:37:17Z</time></trkpt><trkpt lat="46.0653041231335" lon="12.557478683014725"><ele>195.99999999999997</ele><time>2026-04-24T16:37:30Z</time></trkpt><trkpt lat="46.06535998069164" lon="12.557435833138145"><ele>196.0</ele><time>2026-04-24T16:37:36Z</time></trkpt><trkpt lat="46.06528613126275" lon="12.557295576730592"><ele>195.99999999999997</ele><time>2026-04-24T16:37:47Z</time></trkpt><trkpt lat="46.065307616238016" lon="12.557210050764864"><ele>196.0</ele><time>2026-04-24T16:37:57Z</time></trkpt><trkpt lat="46.06524023339244" lon="12.55713231235794"><ele>196.0</ele><time>2026-04-24T16:38:45Z</time></trkpt><trkpt lat="46.06523449657732" lon="12.557030439544656"><ele>196.0</ele><time>2026-04-24T16:38:51Z</time></trkpt><trkpt lat="46.06528275183419" lon="12.556870546852883"><ele>195.99999999999997</ele><time>2026-04-24T16:39:35Z</time></trkpt><trkpt lat="46.065309404110664" lon="12.556765929896697"><ele>196.0</ele><time>2026-04-24T16:40:43.999Z</time></trkpt><trkpt lat="46.06523156655145" lon="12.55677220690769"><ele>195.0</ele><time>2026-04-24T16:40:51Z</time></trkpt><trkpt lat="46.06520976408216" lon="12.556650616051023"><ele>194.0</ele><time>2026-04-24T16:40:57Z</time></trkpt><trkpt lat="46.0652017130591" lon="12.556555182395893"><ele>193.0</ele><time>2026-04-24T16:41:00Z</time></trkpt><trkpt lat="46.06517121972128" lon="12.556475600487268"><ele>192.0</ele><time>2026-04-24T16:41:05Z</time></trkpt><trkpt lat="46.06511277369756" lon="12.556399231566855"><ele>191.0</ele><time>2026-04-24T16:41:10Z</time></trkpt><trkpt lat="46.06509033713621" lon="12.556294214905725"><ele>190.0</ele><time>2026-04-24T16:41:20Z</time></trkpt><trkpt lat="46.06511052356845" lon="12.556195851444686"><ele>189.0</ele><time>2026-04-24T16:41:32Z</time></trkpt><trkpt lat="46.06511169504367" lon="12.556093185021863"><ele>188.33333333333334</ele><time>2026-04-24T16:41:39Z</time></trkpt><trkpt lat="46.065122559412785" lon="12.556002706631245"><ele>187.66666666666666</ele><time>2026-04-24T16:41:48Z</time></trkpt><trkpt lat="46.06513712465133" lon="12.55591234792498"><ele>187.0</ele><time>2026-04-24T16:41:54Z</time></trkpt><trkpt lat="46.06524826928693" lon="12.555833644805105"><ele>186.33333333333331</ele><time>2026-04-24T16:42:10Z</time></trkpt><trkpt lat="46.06517722908501" lon="12.555815325888195"><ele>185.66666666666666</ele><time>2026-04-24T16:42:16Z</time></trkpt><trkpt lat="46.06512790146121" lon="12.555725370202648"><ele>185.0</ele><time>2026-04-24T16:42:22.999Z</time></trkpt><trkpt lat="46.06506913219323" lon="12.555655219016824"><ele>184.99999999999997</ele><time>2026-04-24T16:42:30.999Z</time></trkpt><trkpt lat="46.065011067116444" lon="12.55561212011678"><ele>185.0</ele><time>2026-04-24T16:42:36.999Z</time></trkpt><trkpt lat="46.06498656063543" lon="12.555520920501804"><ele>185.0</ele><time>2026-04-24T16:42:42.999Z</time></trkpt><trkpt lat="46.06494354154908" lon="12.555442804279592"><ele>185.0</ele><time>2026-04-24T16:42:47.999Z</time></trkpt><trkpt lat="46.06490254464715" lon="12.55536379216499"><ele>185.0</ele><time>2026-04-24T16:42:54Z</time></trkpt><trkpt lat="46.06484333756071" lon="12.555323087342975"><ele>184.99999999999997</ele><time>2026-04-24T16:43:02Z</time></trkpt><trkpt lat="46.06481811954055" lon="12.555235651174822"><ele>185.0</ele><time>2026-04-24T16:43:08Z</time></trkpt><trkpt lat="46.064786791205115" lon="12.555134175749078"><ele>183.42857142857142</ele><time>2026-04-24T16:43:15Z</time></trkpt><trkpt lat="46.06473727118375" lon="12.555053886127244"><ele>181.85714285714286</ele><time>2026-04-24T16:43:23Z</time></trkpt><trkpt lat="46.06467413360306" lon="12.555082976413711"><ele>180.28571428571428</ele><time>2026-04-24T16:43:28Z</time></trkpt><trkpt lat="46.06462225548304" lon="12.55501533252295"><ele>178.71428571428572</ele><time>2026-04-24T16:43:36Z</time></trkpt><trkpt lat="46.06455615180349" lon="12.555001086364102"><ele>177.14285714285714</ele><time>2026-04-24T16:43:50Z</time></trkpt><trkpt lat="46.06448922739391" lon="12.554931202160569"><ele>175.57142857142856</ele><time>2026-04-24T16:43:57Z</time></trkpt><trkpt lat="46.064455854883164" lon="12.55483648532677"><ele>174.0</ele><time>2026-04-24T16:44:02Z</time></trkpt><trkpt lat="46.06451852424828" lon="12.554746402246792"><ele>174.0</ele><time>2026-04-24T16:44:10Z</time></trkpt><trkpt lat="46.06454057574122" lon="12.55465446997506"><ele>174.0</ele><time>2026-04-24T16:44:20Z</time></trkpt><trkpt lat="46.06453587945535" lon="12.554558803038265"><ele>174.0</ele><time>2026-04-24T16:44:25Z</time></trkpt><trkpt lat="46.064495821255264" lon="12.554473411231836"><ele>174.0</ele><time>2026-04-24T16:44:29Z</time></trkpt><trkpt lat="46.064485812736564" lon="12.554383551611418"><ele>174.0</ele><time>2026-04-24T16:44:34.999Z</time></trkpt><trkpt lat="46.06445233179175" lon="12.554288735514467"><ele>174.0</ele><time>2026-04-24T16:44:45.999Z</time></trkpt><trkpt lat="46.06438918017674" lon="12.55423879479679"><ele>174.0</ele><time>2026-04-24T16:44:51.999Z</time></trkpt><trkpt lat="46.06432117007747" lon="12.554192016471726"><ele>173.57142857142856</ele><time>2026-04-24T16:44:56.999Z</time></trkpt><trkpt lat="46.0642706794396" lon="12.554135438330912"><ele>173.14285714285714</ele><time>2026-04-24T16:45:04Z</time></trkpt><trkpt lat="46.06433310755422" lon="12.554121855779973"><ele>172.71428571428572</ele><time>2026-04-24T16:45:12Z</time></trkpt><trkpt lat="46.06439746965252" lon="12.554080422496225"><ele>172.28571428571428</ele><time>2026-04-24T16:45:18Z</time></trkpt><trkpt lat="46.06435852513152" lon="12.553999859315848"><ele>171.85714285714286</ele><time>2026-04-24T16:45:27Z</time></trkpt><trkpt lat="46.06434421636875" lon="12.55390868471524"><ele>171.42857142857142</ele><time>2026-04-24T16:45:31Z</time></trkpt><trkpt lat="46.06428313776609" lon="12.553815695911801"><ele>171.0</ele><time>2026-04-24T16:45:41Z</time></trkpt><trkpt lat="46.06421659864069" lon="12.55378430468894"><ele>170.99999999999997</ele><time>2026-04-24T16:45:50Z</time></trkpt><trkpt lat="46.06414918742061" lon="12.553751234114364"><ele>171.0</ele><time>2026-04-24T16:45:59Z</time></trkpt><trkpt lat="46.0640775289081" lon="12.553785215239246"><ele>171.0</ele><time>2026-04-24T16:46:04Z</time></trkpt><trkpt lat="46.06401794764727" lon="12.55381452977543"><ele>171.0</ele><time>2026-04-24T16:46:08Z</time></trkpt><trkpt lat="46.06395028899302" lon="12.553790098660457"><ele>171.0</ele><time>2026-04-24T16:46:20Z</time></trkpt><trkpt lat="46.06389360322639" lon="12.553730649315824"><ele>170.99999999999997</ele><time>2026-04-24T16:46:24Z</time></trkpt><trkpt lat="46.06382416747102" lon="12.553735389264872"><ele>171.0</ele><time>2026-04-24T16:46:31Z</time></trkpt><trkpt lat="46.06376325378282" lon="12.553697995944104"><ele>170.14285714285714</ele><time>2026-04-24T16:46:37Z</time></trkpt><trkpt lat="46.06369083301977" lon="12.553690786391263"><ele>169.28571428571428</ele><time>2026-04-24T16:46:44.999Z</time></trkpt><trkpt lat="46.063627894004505" lon="12.553648136474871"><ele>168.42857142857144</ele><time>2026-04-24T16:46:54.999Z</time></trkpt><trkpt lat="46.063557046579206" lon="12.553621334807147"><ele>167.57142857142856</ele><time>2026-04-24T16:47:00.999Z</time></trkpt><trkpt lat="46.06346717430713" lon="12.553588140098396"><ele>166.71428571428572</ele><time>2026-04-24T16:47:08Z</time></trkpt><trkpt lat="46.06339955431912" lon="12.553593922843078"><ele>165.85714285714286</ele><time>2026-04-24T16:47:16Z</time></trkpt><trkpt lat="46.06335708659438" lon="12.553518169475893"><ele>165.0</ele><time>2026-04-24T16:47:23Z</time></trkpt><trkpt lat="46.063355042049515" lon="12.553396653018485"><ele>165.00000000000003</ele><time>2026-04-24T16:47:30Z</time></trkpt><trkpt lat="46.063293207529334" lon="12.55328427023228"><ele>165.0</ele><time>2026-04-24T16:47:38Z</time></trkpt><trkpt lat="46.06324493571393" lon="12.553209652137062"><ele>165.0</ele><time>2026-04-24T16:47:48Z</time></trkpt><trkpt lat="46.06327048427065" lon="12.55311650029086"><ele>165.0</ele><time>2026-04-24T16:47:54Z</time></trkpt><trkpt lat="46.063215727378356" lon="12.553061580159586"><ele>165.0</ele><time>2026-04-24T16:48:00Z</time></trkpt><trkpt lat="46.06318624189832" lon="12.552974824618186"><ele>165.00000000000003</ele><time>2026-04-24T16:48:04Z</time></trkpt><trkpt lat="46.06316277763939" lon="12.552878561140467"><ele>165.0</ele><time>2026-04-24T16:48:13Z</time></trkpt><trkpt lat="46.06312776937283" lon="12.55278673586327"><ele>163.71428571428572</ele><time>2026-04-24T16:48:21Z</time></trkpt><trkpt lat="46.06308652805413" lon="12.552711168049363"><ele>162.42857142857144</ele><time>2026-04-24T16:48:25Z</time></trkpt><trkpt lat="46.06306398006391" lon="12.552623601590128"><ele>161.14285714285717</ele><time>2026-04-24T16:48:30Z</time></trkpt><trkpt lat="46.063007694285176" lon="12.552582308796644"><ele>159.85714285714286</ele><time>2026-04-24T16:48:40.999Z</time></trkpt><trkpt lat="46.06296482418265" lon="12.552508422140162"><ele>158.57142857142856</ele><time>2026-04-24T16:48:43.999Z</time></trkpt><trkpt lat="46.062949376251495" lon="12.55241934179092"><ele>157.2857142857143</ele><time>2026-04-24T16:48:50.999Z</time></trkpt><trkpt lat="46.06290772802797" lon="12.552349633400471"><ele>156.0</ele><time>2026-04-24T16:48:54.999Z</time></trkpt><trkpt lat="46.06285719230456" lon="12.552257160368425"><ele>156.0</ele><time>2026-04-24T16:49:01.999Z</time></trkpt><trkpt lat="46.06281680602794" lon="12.5521639789465"><ele>156.0</ele><time>2026-04-24T16:49:07.999Z</time></trkpt><trkpt lat="46.062755417290305" lon="12.552125661347493"><ele>156.0</ele><time>2026-04-24T16:49:14Z</time></trkpt><trkpt lat="46.06270952037106" lon="12.552056244674977"><ele>156.0</ele><time>2026-04-24T16:49:20Z</time></trkpt><trkpt lat="46.06265246228937" lon="12.55201775783797"><ele>156.0</ele><time>2026-04-24T16:49:28Z</time></trkpt><trkpt lat="46.062578659018584" lon="12.551984776644657"><ele>156.0</ele><time>2026-04-24T16:49:34Z</time></trkpt><trkpt lat="46.062522029722174" lon="12.551924695557839"><ele>156.0</ele><time>2026-04-24T16:49:40Z</time></trkpt><trkpt lat="46.06245217452197" lon="12.551900177112977"><ele>155.57142857142858</ele><time>2026-04-24T16:49:46Z</time></trkpt><trkpt lat="46.062435821235056" lon="12.55180359568958"><ele>155.14285714285714</ele><time>2026-04-24T16:49:55Z</time></trkpt><trkpt lat="46.06238609033766" lon="12.55171924228633"><ele>154.71428571428572</ele><time>2026-04-24T16:50:04Z</time></trkpt><trkpt lat="46.06234191816543" lon="12.551644884264885"><ele>154.28571428571428</ele><time>2026-04-24T16:50:08Z</time></trkpt><trkpt lat="46.062289388534715" lon="12.55158621759311"><ele>153.85714285714286</ele><time>2026-04-24T16:50:12Z</time></trkpt><trkpt lat="46.062229812810585" lon="12.551536956383853"><ele>153.42857142857142</ele><time>2026-04-24T16:50:17Z</time></trkpt><trkpt lat="46.062163221878386" lon="12.551491778264772"><ele>153.0</ele><time>2026-04-24T16:50:21Z</time></trkpt><trkpt lat="46.062097820268896" lon="12.551462280629119"><ele>153.0</ele><time>2026-04-24T16:50:28Z</time></trkpt><trkpt lat="46.0620666628174" lon="12.5515596539171"><ele>153.0</ele><time>2026-04-24T16:50:34Z</time></trkpt><trkpt lat="46.06203145769464" lon="12.551649608590518"><ele>153.0</ele><time>2026-04-24T16:50:39Z</time></trkpt><trkpt lat="46.062000477880375" lon="12.551733282073613"><ele>153.0</ele><time>2026-04-24T16:50:46Z</time></trkpt><trkpt lat="46.06193853025067" lon="12.551772698897807"><ele>153.0</ele><time>2026-04-24T16:50:53.999Z</time></trkpt><trkpt lat="46.06189805030785" lon="12.55184875141113"><ele>153.0</ele><time>2026-04-24T16:50:59.999Z</time></trkpt><trkpt lat="46.06188409891269" lon="12.551939637769516"><ele>153.0</ele><time>2026-04-24T16:51:02.999Z</time></trkpt><trkpt lat="46.061874863368345" lon="12.552036357065992"><ele>152.71428571428572</ele><time>2026-04-24T16:51:06.999Z</time></trkpt><trkpt lat="46.061859961666066" lon="12.552130539937929"><ele>152.42857142857144</ele><time>2026-04-24T16:51:12.999Z</time></trkpt><trkpt lat="46.06180747445427" lon="12.552210169223644"><ele>152.14285714285717</ele><time>2026-04-24T16:51:20Z</time></trkpt><trkpt lat="46.06177773376261" lon="12.552309274515816"><ele>151.85714285714286</ele><time>2026-04-24T16:51:25Z</time></trkpt><trkpt lat="46.061796549130065" lon="12.55240420635731"><ele>151.57142857142858</ele><time>2026-04-24T16:51:29Z</time></trkpt><trkpt lat="46.06183628610445" lon="12.552477504361784"><ele>151.2857142857143</ele><time>2026-04-24T16:51:33Z</time></trkpt><trkpt lat="46.06179630616477" lon="12.55254913178164"><ele>151.0</ele><time>2026-04-24T16:51:46Z</time></trkpt><trkpt lat="46.061795920317955" lon="12.552440891737042"><ele>151.0</ele><time>2026-04-24T16:51:58Z</time></trkpt><trkpt lat="46.06185944960424" lon="12.552264900980006"><ele>151.0</ele><time>2026-04-24T16:52:09Z</time></trkpt><trkpt lat="46.061845065650644" lon="12.552168416400129"><ele>151.0</ele><time>2026-04-24T16:52:15Z</time></trkpt><trkpt lat="46.06185572050168" lon="12.552063298087699"><ele>151.0</ele><time>2026-04-24T16:52:21Z</time></trkpt><trkpt lat="46.06180742185812" lon="12.551981766200276"><ele>151.0</ele><time>2026-04-24T16:52:26Z</time></trkpt><trkpt lat="46.06171778337134" lon="12.552016880977751"><ele>151.0</ele><time>2026-04-24T16:52:31Z</time></trkpt><trkpt lat="46.06165463798494" lon="12.552037089689728"><ele>151.00000000000003</ele><time>2026-04-24T16:52:36Z</time></trkpt><trkpt lat="46.06159320434386" lon="12.552078859771386"><ele>151.0</ele><time>2026-04-24T16:52:43Z</time></trkpt><trkpt lat="46.061533971522465" lon="12.552114059255914"><ele>151.0</ele><time>2026-04-24T16:52:47Z</time></trkpt><trkpt lat="46.06148457582438" lon="12.55219860162601"><ele>151.0</ele><time>2026-04-24T16:52:55Z</time></trkpt><trkpt lat="46.061477979628904" lon="12.552293888474079"><ele>151.0</ele><time>2026-04-24T16:52:59.999Z</time></trkpt><trkpt lat="46.06151551417804" lon="12.552373313370413"><ele>151.00000000000003</ele><time>2026-04-24T16:53:04.999Z</time></trkpt><trkpt lat="46.06156057949284" lon="12.552466676912402"><ele>151.0</ele><time>2026-04-24T16:53:10.999Z</time></trkpt><trkpt lat="46.06161171572743" lon="12.552521450666916"><ele>151.00000000000003</ele><time>2026-04-24T16:53:14.999Z</time></trkpt><trkpt lat="46.0616376116151" lon="12.552623959031488"><ele>151.0</ele><time>2026-04-24T16:53:21.999Z</time></trkpt><trkpt lat="46.06169533854157" lon="12.5526750129699"><ele>151.0</ele><time>2026-04-24T16:53:27Z</time></trkpt><trkpt lat="46.061741000868714" lon="12.552746181152314"><ele>151.0</ele><time>2026-04-24T16:53:33Z</time></trkpt><trkpt lat="46.06175532005135" lon="12.55283542358665"><ele>151.0</ele><time>2026-04-24T16:53:40Z</time></trkpt><trkpt lat="46.061749894466175" lon="12.552971429741156"><ele>151.00000000000003</ele><time>2026-04-24T16:54:18Z</time></trkpt><trkpt lat="46.061684179576375" lon="12.552978444215185"><ele>151.0</ele><time>2026-04-24T16:54:26Z</time></trkpt><trkpt lat="46.061624222756045" lon="12.553022879807294"><ele>151.0</ele><time>2026-04-24T16:54:28Z</time></trkpt><trkpt lat="46.06167328135952" lon="12.553143886790746"><ele>151.0</ele><time>2026-04-24T16:54:30Z</time></trkpt><trkpt lat="46.06173246053251" lon="12.553228291185663"><ele>151.0</ele><time>2026-04-24T16:54:47Z</time></trkpt><trkpt lat="46.06165438594383" lon="12.55331452057993"><ele>151.0</ele><time>2026-04-24T16:54:52Z</time></trkpt><trkpt lat="46.06157346075939" lon="12.553340129949992"><ele>151.0</ele><time>2026-04-24T16:54:54Z</time></trkpt><trkpt lat="46.06150745550923" lon="12.553321101436598"><ele>151.0</ele><time>2026-04-24T16:54:57Z</time></trkpt><trkpt lat="46.06156020740306" lon="12.553382317272339"><ele>150.85714285714286</ele><time>2026-04-24T16:55:06.999Z</time></trkpt><trkpt lat="46.06152709239313" lon="12.55345953221646"><ele>150.71428571428572</ele><time>2026-04-24T16:55:09.999Z</time></trkpt><trkpt lat="46.061513215562925" lon="12.553580450833767"><ele>150.57142857142856</ele><time>2026-04-24T16:55:18.999Z</time></trkpt><trkpt lat="46.06150723418048" lon="12.553672857870326"><ele>150.42857142857144</ele><time>2026-04-24T16:55:24.999Z</time></trkpt><trkpt lat="46.06153061146435" lon="12.553789101721101"><ele>150.28571428571428</ele><time>2026-04-24T16:55:31Z</time></trkpt><trkpt lat="46.061583150126616" lon="12.553888137498694"><ele>150.14285714285714</ele><time>2026-04-24T16:55:33Z</time></trkpt><trkpt lat="46.06159713222511" lon="12.55397906230129"><ele>150.0</ele><time>2026-04-24T16:55:40Z</time></trkpt><trkpt lat="46.061662817853886" lon="12.55401300053123"><ele>150.0</ele><time>2026-04-24T16:55:44Z</time></trkpt><trkpt lat="46.061701934872914" lon="12.554095473920786"><ele>150.0</ele><time>2026-04-24T16:55:49Z</time></trkpt><trkpt lat="46.06179083998018" lon="12.554257542189937"><ele>150.0</ele><time>2026-04-24T16:56:59Z</time></trkpt><trkpt lat="46.06177392784646" lon="12.554370456737418"><ele>150.0</ele><time>2026-04-24T16:57:01Z</time></trkpt><trkpt lat="46.06178521704515" lon="12.554463677791679"><ele>150.0</ele><time>2026-04-24T16:57:15.999Z</time></trkpt><trkpt lat="46.06177639362792" lon="12.554554536048675"><ele>150.0</ele><time>2026-04-24T16:57:22.999Z</time></trkpt><trkpt lat="46.06176191612686" lon="12.554654811167971"><ele>149.7142857142857</ele><time>2026-04-24T16:57:28.999Z</time></trkpt><trkpt lat="46.06174094369227" lon="12.554746405989018"><ele>149.42857142857142</ele><time>2026-04-24T16:57:37Z</time></trkpt><trkpt lat="46.06173793001208" lon="12.55484088427511"><ele>149.14285714285714</ele><time>2026-04-24T16:57:40Z</time></trkpt><trkpt lat="46.06174019271615" lon="12.554942573533541"><ele>148.85714285714283</ele><time>2026-04-24T16:57:46Z</time></trkpt><trkpt lat="46.061732251605584" lon="12.555035030377676"><ele>148.57142857142856</ele><time>2026-04-24T16:57:53Z</time></trkpt><trkpt lat="46.061682210164996" lon="12.555092535609301"><ele>148.28571428571428</ele><time>2026-04-24T16:58:01Z</time></trkpt><trkpt lat="46.061617002088205" lon="12.555147441214002"><ele>148.0</ele><time>2026-04-24T16:58:09Z</time></trkpt><trkpt lat="46.061580374707894" lon="12.555246939119241"><ele>147.28571428571428</ele><time>2026-04-24T16:58:16Z</time></trkpt><trkpt lat="46.06159970768771" lon="12.555344542096227"><ele>146.57142857142856</ele><time>2026-04-24T16:58:20Z</time></trkpt><trkpt lat="46.061579664060304" lon="12.555454113787288"><ele>145.85714285714283</ele><time>2026-04-24T16:58:26Z</time></trkpt><trkpt lat="46.061579899898746" lon="12.55555092346166"><ele>145.14285714285714</ele><time>2026-04-24T16:58:32Z</time></trkpt><trkpt lat="46.06157037445695" lon="12.555644006494717"><ele>144.42857142857142</ele><time>2026-04-24T16:58:38Z</time></trkpt><trkpt lat="46.061549142054254" lon="12.55574254175712"><ele>143.7142857142857</ele><time>2026-04-24T16:58:44Z</time></trkpt><trkpt lat="46.06152125942323" lon="12.555827567783753"><ele>143.0</ele><time>2026-04-24T16:58:50Z</time></trkpt><trkpt lat="46.06147518295326" lon="12.555893820013576"><ele>142.85714285714283</ele><time>2026-04-24T16:58:57Z</time></trkpt><trkpt lat="46.06143749254868" lon="12.555969025028755"><ele>142.71428571428572</ele><time>2026-04-24T16:59:03Z</time></trkpt><trkpt lat="46.061394701114594" lon="12.55605166335842"><ele>142.57142857142856</ele><time>2026-04-24T16:59:10Z</time></trkpt><trkpt lat="46.061361801640885" lon="12.55612994616891"><ele>142.42857142857142</ele><time>2026-04-24T16:59:13.999Z</time></trkpt><trkpt lat="46.06134326468926" lon="12.556230959330517"><ele>142.28571428571428</ele><time>2026-04-24T16:59:21.999Z</time></trkpt><trkpt lat="46.06131114123092" lon="12.55631467514867"><ele>142.14285714285714</ele><time>2026-04-24T16:59:28.999Z</time></trkpt><trkpt lat="46.061247793067444" lon="12.556332214478738"><ele>142.0</ele><time>2026-04-24T16:59:35.999Z</time></trkpt><trkpt lat="46.061169893302846" lon="12.556332297014551"><ele>142.0</ele><time>2026-04-24T16:59:43Z</time></trkpt><trkpt lat="46.06111238584602" lon="12.556278984273675"><ele>142.0</ele><time>2026-04-24T16:59:51Z</time></trkpt><trkpt lat="46.06104787675679" lon="12.556277254273523"><ele>142.0</ele><time>2026-04-24T16:59:56Z</time></trkpt><trkpt lat="46.06098082969603" lon="12.556241439995656"><ele>142.0</ele><time>2026-04-24T17:00:05Z</time></trkpt><trkpt lat="46.060908672789814" lon="12.556218448351407"><ele>142.0</ele><time>2026-04-24T17:00:10Z</time></trkpt><trkpt lat="46.06091117169267" lon="12.556329815280833"><ele>142.0</ele><time>2026-04-24T17:00:17Z</time></trkpt><trkpt lat="46.060956665167886" lon="12.556409907124662"><ele>142.0</ele><time>2026-04-24T17:00:25Z</time></trkpt><trkpt lat="46.061010747994985" lon="12.556471229418479"><ele>142.0</ele><time>2026-04-24T17:00:31Z</time></trkpt><trkpt lat="46.06106082180076" lon="12.556545930486267"><ele>142.0</ele><time>2026-04-24T17:00:37Z</time></trkpt><trkpt lat="46.06110752130141" lon="12.556628244144017"><ele>142.0</ele><time>2026-04-24T17:00:43Z</time></trkpt><trkpt lat="46.06115499601605" lon="12.556688511700886"><ele>142.0</ele><time>2026-04-24T17:00:48Z</time></trkpt><trkpt lat="46.0612216746354" lon="12.556736091546187"><ele>142.0</ele><time>2026-04-24T17:00:56Z</time></trkpt><trkpt lat="46.06124849690204" lon="12.556822292638655"><ele>142.0</ele><time>2026-04-24T17:01:04Z</time></trkpt><trkpt lat="46.0612278794513" lon="12.556912502522934"><ele>142.0</ele><time>2026-04-24T17:01:13Z</time></trkpt><trkpt lat="46.061179231705694" lon="12.556973332293024"><ele>141.71428571428572</ele><time>2026-04-24T17:01:35.999Z</time></trkpt><trkpt lat="46.06116068787875" lon="12.557061490050268"><ele>141.42857142857142</ele><time>2026-04-24T17:01:41.999Z</time></trkpt><trkpt lat="46.06109745787755" lon="12.557099397158584"><ele>141.14285714285714</ele><time>2026-04-24T17:01:50Z</time></trkpt><trkpt lat="46.06103467574064" lon="12.557090184348375"><ele>140.85714285714286</ele><time>2026-04-24T17:01:56Z</time></trkpt><trkpt lat="46.06098716498461" lon="12.55715047309311"><ele>140.57142857142856</ele><time>2026-04-24T17:02:00Z</time></trkpt><trkpt lat="46.06092274101254" lon="12.557216045332563"><ele>140.28571428571428</ele><time>2026-04-24T17:02:07Z</time></trkpt><trkpt lat="46.06089074683007" lon="12.557298959829572"><ele>140.0</ele><time>2026-04-24T17:02:13Z</time></trkpt><trkpt lat="46.06084226938592" lon="12.557361930287641"><ele>139.71428571428572</ele><time>2026-04-24T17:02:20Z</time></trkpt><trkpt lat="46.060782417812426" lon="12.557437323567004"><ele>139.42857142857144</ele><time>2026-04-24T17:02:27Z</time></trkpt><trkpt lat="46.06070791361827" lon="12.557471623077735"><ele>139.14285714285714</ele><time>2026-04-24T17:02:35Z</time></trkpt><trkpt lat="46.06063207773779" lon="12.557486563032413"><ele>138.85714285714286</ele><time>2026-04-24T17:02:41Z</time></trkpt><trkpt lat="46.06055864639471" lon="12.557501722746848"><ele>138.57142857142858</ele><time>2026-04-24T17:02:47Z</time></trkpt><trkpt lat="46.06049522808658" lon="12.557468230612535"><ele>138.28571428571428</ele><time>2026-04-24T17:02:56Z</time></trkpt><trkpt lat="46.0604743535011" lon="12.557367300303008"><ele>138.0</ele><time>2026-04-24T17:03:02Z</time></trkpt><trkpt lat="46.060421554514726" lon="12.55730306885731"><ele>138.0</ele><time>2026-04-24T17:03:08Z</time></trkpt><trkpt lat="46.06035858997526" lon="12.557327057243208"><ele>138.0</ele><time>2026-04-24T17:03:12Z</time></trkpt><trkpt lat="46.06028036007501" lon="12.557358023618118"><ele>138.0</ele><time>2026-04-24T17:03:19Z</time></trkpt><trkpt lat="46.06022618546661" lon="12.557406247528611"><ele>138.0</ele><time>2026-04-24T17:03:24.999Z</time></trkpt><trkpt lat="46.06016337316612" lon="12.557455534226962"><ele>138.0</ele><time>2026-04-24T17:03:30.999Z</time></trkpt><trkpt lat="46.06010766212327" lon="12.557503695966165"><ele>138.0</ele><time>2026-04-24T17:03:35.999Z</time></trkpt><trkpt lat="46.060048316095966" lon="12.557539617305979"><ele>138.0</ele><time>2026-04-24T17:03:44.999Z</time></trkpt><trkpt lat="46.060039213744545" lon="12.557639402297143"><ele>138.0</ele><time>2026-04-24T17:03:55Z</time></trkpt><trkpt lat="46.06004227654046" lon="12.557735215975855"><ele>138.0</ele><time>2026-04-24T17:04:03Z</time></trkpt><trkpt lat="46.06006237941936" lon="12.557821836392351"><ele>138.0</ele><time>2026-04-24T17:04:11Z</time></trkpt><trkpt lat="46.06009480386907" lon="12.557923061955702"><ele>138.0</ele><time>2026-04-24T17:04:15Z</time></trkpt><trkpt lat="46.06009397793874" lon="12.558030112432705"><ele>138.0</ele><time>2026-04-24T17:04:22Z</time></trkpt><trkpt lat="46.06006125037981" lon="12.558125105888516"><ele>138.0</ele><time>2026-04-24T17:04:32Z</time></trkpt><trkpt lat="46.060050552621725" lon="12.558223733748044"><ele>138.0</ele><time>2026-04-24T17:04:38Z</time></trkpt><trkpt lat="46.05997101676284" lon="12.558247257388281"><ele>137.33333333333334</ele><time>2026-04-24T17:04:45Z</time></trkpt><trkpt lat="46.05992372562454" lon="12.558324770692975"><ele>136.66666666666666</ele><time>2026-04-24T17:04:50Z</time></trkpt><trkpt lat="46.05986721323314" lon="12.558381211721755"><ele>136.0</ele><time>2026-04-24T17:04:56Z</time></trkpt><trkpt lat="46.0597839088272" lon="12.558363496080059"><ele>135.33333333333331</ele><time>2026-04-24T17:05:04Z</time></trkpt><trkpt lat="46.059730661620904" lon="12.55829997257286"><ele>134.66666666666666</ele><time>2026-04-24T17:05:10Z</time></trkpt><trkpt lat="46.05968970473981" lon="12.558205451492755"><ele>134.0</ele><time>2026-04-24T17:05:14Z</time></trkpt><trkpt lat="46.05962826151999" lon="12.558278508351146"><ele>134.0</ele><time>2026-04-24T17:05:23Z</time></trkpt><trkpt lat="46.05965714191311" lon="12.558400676832942"><ele>134.0</ele><time>2026-04-24T17:05:25.999Z</time></trkpt><trkpt lat="46.05969095890748" lon="12.558480139910975"><ele>134.0</ele><time>2026-04-24T17:05:31.999Z</time></trkpt><trkpt lat="46.059717493707865" lon="12.558565898024694"><ele>134.0</ele><time>2026-04-24T17:05:38.999Z</time></trkpt><trkpt lat="46.059698510301224" lon="12.558669358569228"><ele>134.0</ele><time>2026-04-24T17:05:40.999Z</time></trkpt><trkpt lat="46.05963535204649" lon="12.558659024331154"><ele>134.0</ele><time>2026-04-24T17:05:45.999Z</time></trkpt><trkpt lat="46.059576198071056" lon="12.558703550413089"><ele>134.0</ele><time>2026-04-24T17:05:52.999Z</time></trkpt><trkpt lat="46.059516968814904" lon="12.558749170866385"><ele>133.85714285714286</ele><time>2026-04-24T17:06:00Z</time></trkpt><trkpt lat="46.059469279124244" lon="12.558818933564394"><ele>133.71428571428572</ele><time>2026-04-24T17:06:05Z</time></trkpt><trkpt lat="46.05943868449808" lon="12.55889916551526"><ele>133.57142857142856</ele><time>2026-04-24T17:06:11Z</time></trkpt><trkpt lat="46.05938057647039" lon="12.558957454778522"><ele>133.42857142857144</ele><time>2026-04-24T17:06:18Z</time></trkpt><trkpt lat="46.05931612647731" lon="12.55896298070815"><ele>133.28571428571428</ele><time>2026-04-24T17:06:23Z</time></trkpt><trkpt lat="46.059256349325274" lon="12.558891452720522"><ele>133.14285714285714</ele><time>2026-04-24T17:06:29Z</time></trkpt><trkpt lat="46.059215269753956" lon="12.558822645749316"><ele>133.0</ele><time>2026-04-24T17:06:33Z</time></trkpt><trkpt lat="46.059176496541156" lon="12.55875085652905"><ele>133.0</ele><time>2026-04-24T17:06:41Z</time></trkpt><trkpt lat="46.059131449278986" lon="12.558667950524773"><ele>134.0</ele><time>2026-04-24T17:06:47Z</time></trkpt><trkpt lat="46.05909058950451" lon="12.558596940129561"><ele>133.0</ele><time>2026-04-24T17:06:54Z</time></trkpt><trkpt lat="46.05903801971677" lon="12.558523524328939"><ele>133.0</ele><time>2026-04-24T17:07:00Z</time></trkpt><trkpt lat="46.058992375480734" lon="12.558458462610318"><ele>133.0</ele><time>2026-04-24T17:07:06Z</time></trkpt><trkpt lat="46.058932814475895" lon="12.558427171689937"><ele>133.0</ele><time>2026-04-24T17:07:13Z</time></trkpt></trkseg></trk></gpx>